Meteo Giornale » Osservazioni meteo Spagna » Cordoba
ore: 14:30 - Osservazioni Meteo Cordoba
Lat. 37° 51' N Lon. 4° 51' W Alt. 90 metri s.l.m.
34 °C
Sereno
Temp. 24 Ore
18 °C
38 °C
Nord
5.5 Km/h
Dew point 11 °C
Umidità 24 %
Visibilità 10 Km
Il sole sorge alle ore 07:49
Il sole tramonta alle ore 20:49
| Data e Ora | Cielo e Fenomeni | T °C | DP °C | Um. % | Pres. hPa | Vis. km | Vento km/h | |
|---|---|---|---|---|---|---|---|---|
| Oggi h: 14:30 | Sereno | 34 | 11 | 24 | 1016 | 10 | N 5.5 | |
| Oggi h: 14:00 | Sereno | 33 | 11 | 26 | 1016 | 10 | N 3.7 | |
| Oggi h: 13:30 | Sereno | 33 | 11 | 26 | 1017 | 10 | N 3.7 | |
| Oggi h: 13:00 | Sereno | 32 | 11 | 27 | 1017 | 10 | N 1.8 | |
| Oggi h: 12:30 | Sereno | 31 | 10 | 27 | 1017 | 10 | N 1.8 | |
| Oggi h: 12:00 | Sereno | 30 | 10 | 28 | 1017 | 10 | N 1.8 | |
| Oggi h: 11:30 | Sereno | 29 | 10 | 30 | 1017 | 10 | N 3.7 | |
| Oggi h: 11:00 | Sereno | 27 | 10 | 34 | 1017 | 10 | N 5.5 | |
| Oggi h: 10:30 | Sereno | 26 | 10 | 36 | 1017 | 10 | E/NE 7.4 | |
| Oggi h: 10:00 | Sereno | 24 | 11 | 43 | 1017 | 10 | N 1.8 | |
| Oggi h: 09:30 | Sereno | 23 | 12 | 49 | 1017 | 10 | N 0 | |
| Oggi h: 09:00 | Poco Nuvoloso | 18 | 11 | 63 | 1017 | 10 | N 5.5 | |
| Oggi h: 08:30 | Sereno | 18 | 11 | 63 | 1017 | 10 | N 0 | |
| Oggi h: 08:00 | Sereno | 18 | 11 | 63 | 1016 | 10 | N 3.7 | |
| Oggi h: 07:30 | Sereno | 19 | 11 | 59 | 1016 | 10 | N 3.7 | |
| Oggi h: 07:00 | Sereno | 20 | 10 | 52 | 1016 | 10 | N 0 | |
| Oggi h: 06:30 | Sereno | 19 | 11 | 59 | 1016 | 10 | N 3.7 | |
| Oggi h: 06:00 | Sereno | 21 | 10 | 49 | 1016 | 10 | N 3.7 | |
| Oggi h: 05:30 | Sereno | 22 | 11 | 49 | 1017 | 10 | N 1.8 | |
| Oggi h: 05:00 | Sereno | 22 | 11 | 49 | 1017 | 10 | N 0 | |
| Oggi h: 04:30 | Sereno | 22 | 11 | 49 | 1017 | 10 | N 3.7 | |
| Oggi h: 04:00 | Sereno | 24 | 11 | 43 | 1017 | 10 | N 3.7 | |
| Oggi h: 03:30 | Sereno | 23 | 11 | 46 | 1017 | 10 | O/NO 9.3 | |
| Oggi h: 03:00 | Sereno | 22 | 12 | 53 | 1017 | 10 | N 3.7 | |
| Oggi h: 02:30 | Sereno | 23 | 11 | 46 | 1017 | 10 | N 0 | |
| Oggi h: 02:00 | Sereno | 23 | 11 | 46 | 1016 | 10 | N 0 | |
| Oggi h: 01:30 | Sereno | 24 | 11 | 43 | 1016 | 10 | N 1.8 | |
| Oggi h: 01:00 | Sereno | 25 | 11 | 41 | 1016 | 10 | O 9.3 | |
| Oggi h: 00:30 | Sereno | 24 | 11 | 43 | 1016 | 10 | O/NO 7.4 | |
| Oggi h: 00:00 | Sereno | 26 | 10 | 36 | 1016 | 10 | O 11.1 | |
| Ieri h: 23:30 | Sereno | 25 | 11 | 41 | 1016 | 10 | O/SO 7.4 | |
| Ieri h: 23:00 | Sereno | 25 | 12 | 44 | 1015 | 10 | N 5.5 | |
| Ieri h: 22:30 | Sereno | 25 | 13 | 47 | 1015 | 10 | N 5.5 | |
| Ieri h: 22:00 | Sereno | 27 | 12 | 39 | 1014 | 10 | N 1.8 | |
| Ieri h: 21:30 | Sereno | 28 | 12 | 37 | 1014 | 10 | N 3.7 | |
| Ieri h: 21:00 | Sereno | 31 | 11 | 29 | 1014 | 10 | N 3.7 | |
| Ieri h: 20:30 | Sereno | 34 | 12 | 26 | 1013 | 10 | N 3.7 | |
| Ieri h: 20:00 | Sereno | 35 | 9 | 20 | 1013 | 10 | O 7.4 | |
| Ieri h: 19:30 | Sereno | 37 | 8 | 17 | 1013 | 10 | O 11.1 | |
| Ieri h: 19:00 | Sereno | 38 | 8 | 16 | 1014 | 10 | O 11.1 | |
| Ieri h: 18:30 | Sereno | 38 | 7 | 15 | 1014 | 10 | O 11.1 | |
| Ieri h: 18:00 | Sereno | 38 | 8 | 16 | 1014 | 10 | O 13 | |
| Ieri h: 17:30 | Sereno | 38 | 8 | 16 | 1014 | 10 | O 9.3 | |
| Ieri h: 17:00 | Sereno | 37 | 8 | 17 | 1014 | 10 | O 11.1 | |
| Ieri h: 16:30 | Sereno | 37 | 8 | 17 | 1015 | 10 | N 5.5 | |
| Ieri h: 16:00 | Sereno | 36 | 9 | 19 | 1015 | 10 | N 3.7 | |



